Time;durP1;ratioP1;P1;durP2;ratioP2;P2;SDS_P1;SDS_P2;PMS_P1;PMS_P2;Temp;Humidity;BMP_temperature;BMP_pressure;BME280_temperature;BME280_humidity;BME280_pressure;Samples;Min_cycle;Max_cycle;Signal;HPM_P1;HPM_P2
2023/05/12 00:02:25;;;;;;;7.10;5.72;;;;;;;15.02;71.70;101515.13;5048909;28;20044;-53
2023/05/12 00:04:53;;;;;;;8.93;6.38;;;;;;;15.01;71.65;101519.72;5050044;28;20049;-55
2023/05/12 00:07:21;;;;;;;8.20;6.25;;;;;;;14.99;71.63;101508.28;5051414;28;20045;-60
2023/05/12 00:09:49;;;;;;;8.57;6.00;;;;;;;14.96;71.94;101508.75;5050857;28;20056;-58
2023/05/12 00:12:18;;;;;;;10.00;5.85;;;;;;;14.98;71.79;101517.47;5055947;28;20064;-58
2023/05/12 00:14:46;;;;;;;10.02;5.60;;;;;;;14.97;71.54;101522.06;5058778;28;20056;-58
2023/05/12 00:17:14;;;;;;;7.15;5.65;;;;;;;14.96;71.70;101515.00;5060026;28;20056;-59
2023/05/12 00:19:42;;;;;;;8.43;6.03;;;;;;;14.96;71.35;101517.69;5055418;28;20064;-59
2023/05/12 00:22:11;;;;;;;6.85;5.50;;;;;;;14.96;71.25;101515.00;5057217;28;20053;-59
2023/05/12 00:24:39;;;;;;;7.32;5.50;;;;;;;14.96;71.50;101512.28;5051956;28;20048;-58
2023/05/12 00:27:07;;;;;;;10.05;6.00;;;;;;;14.95;71.52;101509.81;5045665;28;20085;-59
2023/05/12 00:29:36;;;;;;;10.85;6.43;;;;;;;14.93;71.68;101503.81;5045374;28;20040;-59
2023/05/12 00:32:05;;;;;;;7.38;5.25;;;;;;;14.91;71.86;101511.34;5059343;28;20049;-54
2023/05/12 00:34:33;;;;;;;6.97;5.45;;;;;;;14.89;71.98;101510.75;5043301;28;20064;-59
2023/05/12 00:37:01;;;;;;;6.90;5.22;;;;;;;14.87;71.66;101504.75;5050604;28;20049;-58
2023/05/12 00:39:29;;;;;;;8.35;5.05;;;;;;;14.86;71.83;101508.50;5046953;28;20050;-58
2023/05/12 00:41:58;;;;;;;7.75;4.90;;;;;;;14.85;71.43;101515.00;5055858;28;20068;-58
2023/05/12 00:44:25;;;;;;;6.95;4.65;;;;;;;14.85;71.28;101515.00;5056184;28;20053;-59
2023/05/12 00:46:55;;;;;;;12.38;5.63;;;;;;;14.84;71.50;101505.22;5052698;28;20053;-58
2023/05/12 00:49:25;;;;;;;8.30;4.75;;;;;;;14.84;71.28;101507.94;5051188;28;20053;-57
2023/05/12 00:51:54;;;;;;;6.07;4.15;;;;;;;14.84;71.09;101506.03;5060175;28;20080;-59
2023/05/12 00:54:22;;;;;;;7.93;3.80;;;;;;;14.84;70.96;101503.34;5058261;28;20088;-58
2023/05/12 00:56:51;;;;;;;6.38;4.28;;;;;;;14.84;71.09;101510.63;5057248;28;20108;-58
2023/05/12 00:59:18;;;;;;;6.00;4.13;;;;;;;14.82;70.89;101505.47;5049458;28;20132;-59
2023/05/12 01:01:48;;;;;;;6.55;4.07;;;;;;;14.81;70.79;101500.28;5050320;28;20553;-59
2023/05/12 01:04:17;;;;;;;7.85;3.88;;;;;;;14.80;70.71;101501.34;5051760;28;20053;-57
2023/05/12 01:06:49;;;;;;;7.68;3.90;;;;;;;14.79;70.55;101499.69;5050476;28;20563;-56
2023/05/12 01:09:17;;;;;;;5.78;3.65;;;;;;;14.78;70.75;101500.75;5048427;28;20144;-59
2023/05/12 01:11:45;;;;;;;5.80;3.50;;;;;;;14.78;70.81;101500.75;5053117;28;20128;-58
2023/05/12 01:14:13;;;;;;;6.18;4.43;;;;;;;14.76;70.82;101500.16;5052865;28;20127;-60
2023/05/12 01:16:48;;;;;;;6.63;4.20;;;;;;;14.75;70.75;101499.31;5051462;28;20053;-58
2023/05/12 01:19:32;;;;;;;5.50;4.03;;;;;;;14.74;70.56;101489.56;5006290;28;1107099;-59
2023/05/12 01:22:00;;;;;;;9.23;3.88;;;;;;;14.72;70.55;101498.97;5050291;28;20061;-59
2023/05/12 01:24:33;;;;;;;7.78;4.35;;;;;;;14.71;70.53;101495.44;5047619;28;20087;-57
2023/05/12 01:27:03;;;;;;;8.57;4.40;;;;;;;14.72;70.26;101491.69;5053486;28;20042;-59
2023/05/12 01:29:32;;;;;;;6.93;4.35;;;;;;;14.71;70.32;101492.72;5054009;28;20128;-57
2023/05/12 01:32:00;;;;;;;5.97;4.15;;;;;;;14.71;70.40;101489.22;5056367;28;20045;-58
2023/05/12 01:34:28;;;;;;;7.32;4.70;;;;;;;14.69;70.41;101486.72;5055928;28;20086;-60
2023/05/12 01:36:56;;;;;;;5.70;4.40;;;;;;;14.60;70.62;101478.13;5059614;28;20084;-59
2023/05/12 01:39:23;;;;;;;6.38;3.83;;;;;;;14.69;70.38;101480.50;5049882;28;20125;-59
2023/05/12 01:41:51;;;;;;;6.45;4.03;;;;;;;14.62;70.17;101480.59;5053332;28;20037;-59
2023/05/12 01:44:20;;;;;;;7.15;3.90;;;;;;;14.67;70.31;101483.44;5057839;28;20102;-58
2023/05/12 01:46:49;;;;;;;6.55;4.50;;;;;;;14.67;70.54;101485.31;5051341;28;20053;-58
2023/05/12 01:49:16;;;;;;;7.55;4.75;;;;;;;14.65;70.28;101480.97;5045852;28;20120;-57
2023/05/12 01:51:44;;;;;;;6.15;4.25;;;;;;;14.63;70.17;101480.38;5050008;28;20103;-57
2023/05/12 01:54:12;;;;;;;5.25;4.15;;;;;;;14.62;70.31;101475.19;5053511;28;20152;-58
2023/05/12 01:56:40;;;;;;;5.70;4.18;;;;;;;14.62;70.56;101473.31;5056019;28;20087;-58
2023/05/12 01:59:08;;;;;;;8.43;5.05;;;;;;;14.61;70.45;101477.06;5050526;28;20053;-59
2023/05/12 02:01:37;;;;;;;5.32;4.28;;;;;;;14.61;70.49;101476.25;5049461;28;20041;-59
2023/05/12 02:04:07;;;;;;;7.78;4.55;;;;;;;14.57;70.46;101470.47;5048432;28;20052;-58
2023/05/12 02:06:36;;;;;;;7.90;4.32;;;;;;;14.60;70.56;101471.91;5053574;28;20049;-59
2023/05/12 02:09:04;;;;;;;7.68;4.50;;;;;;;14.59;70.52;101467.53;5052091;28;20088;-59
2023/05/12 02:11:32;;;;;;;5.40;4.18;;;;;;;14.56;70.49;101468.00;5057900;28;20048;-58
2023/05/12 02:13:59;;;;;;;8.18;4.85;;;;;;;14.52;70.56;101464.94;5053391;28;20041;-59
2023/05/12 02:16:27;;;;;;;6.05;4.55;;;;;;;14.50;70.61;101458.13;5046878;28;20586;-61
2023/05/12 02:18:57;;;;;;;5.70;4.00;;;;;;;14.46;70.71;101460.47;5050566;28;20061;-58
2023/05/12 02:21:25;;;;;;;6.07;4.20;;;;;;;14.46;70.88;101456.94;5051624;28;20136;-58
2023/05/12 02:23:52;;;;;;;7.47;4.30;;;;;;;14.44;70.84;101450.94;5052416;28;20049;-58
2023/05/12 02:26:20;;;;;;;4.95;3.78;;;;;;;14.43;70.72;101452.00;5050758;28;20076;-59
2023/05/12 02:28:48;;;;;;;5.90;3.85;;;;;;;14.42;70.98;101453.06;5058663;28;20410;-52
2023/05/12 02:31:16;;;;;;;4.57;3.55;;;;;;;14.41;70.44;101448.66;5053966;28;20110;-58
2023/05/12 02:33:44;;;;;;;6.72;3.70;;;;;;;14.41;70.88;101449.50;5049238;28;20052;-59
2023/05/12 02:36:13;;;;;;;4.65;3.47;;;;;;;14.40;70.77;101437.03;5051328;28;20049;-58
2023/05/12 02:38:41;;;;;;;4.43;3.40;;;;;;;14.41;70.57;101441.38;5049674;28;20045;-60
2023/05/12 02:41:09;;;;;;;3.88;3.22;;;;;;;14.41;70.69;101443.25;5052743;28;20044;-59
2023/05/12 02:43:36;;;;;;;4.80;3.60;;;;;;;14.38;70.76;101439.13;5056285;28;20077;-57
2023/05/12 02:46:04;;;;;;;4.15;2.92;;;;;;;14.36;70.79;101443.13;5056243;28;20101;-59
2023/05/12 02:48:32;;;;;;;7.38;3.17;;;;;;;14.35;70.92;101442.31;5058592;28;20131;-58
2023/05/12 02:51:00;;;;;;;4.50;3.28;;;;;;;14.35;70.54;101439.59;5056725;28;20064;-58
2023/05/12 02:53:29;;;;;;;4.00;2.85;;;;;;;14.34;70.81;101433.38;5061657;28;20108;-58
2023/05/12 02:55:57;;;;;;;4.40;3.20;;;;;;;14.34;70.75;101432.53;5053022;28;20435;-58
2023/05/12 02:58:25;;;;;;;4.28;2.72;;;;;;;14.32;71.00;101430.06;5055207;28;20053;-50
2023/05/12 03:00:53;;;;;;;2.90;2.25;;;;;;;14.32;70.70;101429.25;5060592;28;20046;-58
2023/05/12 03:03:37;;;;;;;3.55;2.60;;;;;;;14.30;70.91;101426.78;5054947;28;20056;-59
2023/05/12 03:06:06;;;;;;;3.95;2.67;;;;;;;14.32;70.87;101423.84;5049002;28;20049;-60
2023/05/12 03:08:35;;;;;;;4.70;2.83;;;;;;;14.30;70.80;101421.38;5045638;28;20072;-57
2023/05/12 03:11:03;;;;;;;3.83;2.58;;;;;;;14.30;70.95;101418.66;5050013;28;20059;-59
2023/05/12 03:13:31;;;;;;;3.55;2.60;;;;;;;14.28;70.99;101420.78;5043734;28;20059;-59
2023/05/12 03:16:00;;;;;;;4.28;2.63;;;;;;;14.28;70.99;101418.06;5055002;28;20051;-58
2023/05/12 03:18:28;;;;;;;4.38;2.30;;;;;;;14.28;70.73;101417.25;5056125;28;20055;-59
2023/05/12 03:20:56;;;;;;;3.42;2.38;;;;;;;14.27;70.79;101416.44;5053606;28;20140;-59
2023/05/12 03:23:24;;;;;;;6.35;2.45;;;;;;;14.27;71.15;101413.72;5054642;28;20053;-59
2023/05/12 03:25:54;;;;;;;3.58;2.22;;;;;;;14.26;71.02;101416.66;5050204;28;20107;-59
2023/05/12 03:28:23;;;;;;;3.10;1.88;;;;;;;14.26;71.07;101400.44;5050082;28;20072;-61
2023/05/12 03:30:51;;;;;;;3.90;2.42;;;;;;;14.23;71.10;101399.03;5051658;28;20075;-57
2023/05/12 03:33:19;;;;;;;2.72;2.00;;;;;;;14.22;70.83;101393.84;5054850;28;20106;-57
2023/05/12 03:35:47;;;;;;;1.75;1.52;;;;;;;14.21;71.05;101387.63;5055465;28;20049;-57
2023/05/12 03:38:14;;;;;;;2.92;2.05;;;;;;;14.21;70.98;101398.44;5053610;28;20049;-58
2023/05/12 03:40:42;;;;;;;2.25;1.75;;;;;;;14.21;70.75;101386.78;5050605;28;20041;-59
2023/05/12 03:43:11;;;;;;;3.40;2.20;;;;;;;14.19;70.92;101387.03;5042989;28;20436;-59
2023/05/12 03:45:39;;;;;;;3.60;2.25;;;;;;;14.20;71.24;101383.28;5050944;28;20049;-58
2023/05/12 03:48:07;;;;;;;2.55;1.80;;;;;;;14.20;70.92;101388.69;5045403;28;20051;-55
2023/05/12 03:50:35;;;;;;;2.17;1.83;;;;;;;14.20;70.99;101380.56;5051097;28;20072;-57
2023/05/12 03:53:03;;;;;;;2.30;1.85;;;;;;;14.19;71.13;101378.91;5053527;28;20075;-53
2023/05/12 03:55:31;;;;;;;2.92;1.75;;;;;;;14.19;71.30;101387.03;5055847;28;20051;-60
2023/05/12 03:57:58;;;;;;;3.03;2.50;;;;;;;14.20;71.05;101393.25;5052996;28;20048;-58
2023/05/12 04:00:28;;;;;;;3.92;2.47;;;;;;;14.18;70.93;101377.28;5054561;28;20053;-58
2023/05/12 04:02:56;;;;;;;4.18;2.72;;;;;;;14.15;71.24;101383.13;5041887;28;20042;-59
2023/05/12 04:05:24;;;;;;;4.28;2.45;;;;;;;14.15;71.25;101379.63;5052841;28;20064;-53
2023/05/12 04:07:52;;;;;;;4.82;2.85;;;;;;;14.15;70.87;101376.91;5053649;28;20045;-60
2023/05/12 04:10:20;;;;;;;4.40;3.20;;;;;;;14.14;71.05;101376.09;5047923;28;20187;-59
2023/05/12 04:12:48;;;;;;;5.65;3.28;;;;;;;14.14;71.46;101372.56;5054023;28;20048;-58
2023/05/12 04:15:16;;;;;;;5.15;3.33;;;;;;;14.13;71.56;101373.63;5039828;28;20169;-57
2023/05/12 04:17:45;;;;;;;4.22;3.15;;;;;;;14.11;71.58;101373.84;5043822;28;20047;-57
2023/05/12 04:20:13;;;;;;;6.32;3.72;;;;;;;14.11;71.40;101373.84;5056027;28;20088;-58
2023/05/12 04:22:41;;;;;;;5.15;3.47;;;;;;;14.11;71.50;101370.31;5052098;28;20052;-58
2023/05/12 04:25:09;;;;;;;5.95;3.58;;;;;;;14.10;71.58;101366.78;5049493;28;20129;-54
2023/05/12 04:27:37;;;;;;;9.10;3.17;;;;;;;14.10;71.31;101372.19;5050840;28;20136;-58
2023/05/12 04:30:07;;;;;;;6.03;3.85;;;;;;;14.09;71.32;101372.44;5049015;28;20132;-56
2023/05/12 04:32:35;;;;;;;5.13;3.25;;;;;;;14.09;71.62;101370.56;5051028;28;20081;-59
2023/05/12 04:35:05;;;;;;;5.53;3.80;;;;;;;14.07;71.79;101364.56;5052740;28;20115;-59
2023/05/12 04:37:33;;;;;;;6.57;3.88;;;;;;;14.06;71.79;101376.44;5049109;28;20099;-59
2023/05/12 04:40:01;;;;;;;5.85;3.88;;;;;;;14.06;71.58;101375.59;5042019;28;20111;-58
2023/05/12 04:42:29;;;;;;;6.53;4.43;;;;;;;14.06;71.77;101372.91;5048514;28;20084;-60
2023/05/12 04:44:57;;;;;;;6.97;4.25;;;;;;;14.06;71.50;101376.44;5050339;28;20045;-56
2023/05/12 04:47:24;;;;;;;6.72;4.55;;;;;;;14.06;71.64;101372.91;5053573;28;20041;-56
2023/05/12 04:49:52;;;;;;;8.27;4.50;;;;;;;14.05;71.57;101374.78;5043638;28;20183;-56
2023/05/12 04:52:21;;;;;;;6.82;4.20;;;;;;;14.05;71.87;101377.47;5043367;28;20124;-58
2023/05/12 04:54:52;;;;;;;6.82;4.43;;;;;;;14.05;71.79;101379.34;5055438;28;20041;-58
2023/05/12 04:57:22;;;;;;;7.63;4.63;;;;;;;14.05;71.71;101376.66;5062694;28;20064;-58
2023/05/12 04:59:50;;;;;;;8.07;5.20;;;;;;;14.04;71.96;101378.53;5051216;28;20132;-58
2023/05/12 05:02:18;;;;;;;7.95;5.22;;;;;;;14.05;72.06;101379.34;5056788;28;20534;-59
2023/05/12 05:04:46;;;;;;;7.28;4.43;;;;;;;14.04;72.01;101385.81;5057284;28;20044;-53
2023/05/12 05:07:14;;;;;;;8.02;5.18;;;;;;;14.03;71.79;101382.28;5055661;28;20099;-59
2023/05/12 05:09:43;;;;;;;8.20;5.05;;;;;;;14.04;71.99;101389.34;5059722;28;20136;-59
2023/05/12 05:12:11;;;;;;;13.13;5.97;;;;;;;14.03;71.84;101387.69;5060438;28;20137;-60
2023/05/12 05:14:39;;;;;;;9.23;6.25;;;;;;;14.02;71.91;101392.28;5057340;28;20044;-59
2023/05/12 05:17:06;;;;;;;11.63;6.30;;;;;;;14.01;72.13;101393.34;5056985;28;20522;-60
2023/05/12 05:19:34;;;;;;;9.07;6.40;;;;;;;14.01;72.33;101396.03;5061274;28;20099;-60
2023/05/12 05:22:21;;;;;;;10.43;6.60;;;;;;;14.00;72.23;101394.38;5046384;28;20307;-59
2023/05/12 05:24:50;;;;;;;11.43;7.00;;;;;;;14.00;72.31;101404.38;5049415;28;20049;-57
2023/05/12 05:27:18;;;;;;;14.25;8.68;;;;;;;13.98;72.47;101401.91;5056721;28;20647;-59
2023/05/12 05:29:46;;;;;;;14.07;8.77;;;;;;;13.98;72.58;101401.09;5050968;28;20045;-59
2023/05/12 05:32:14;;;;;;;14.27;8.73;;;;;;;13.97;72.78;101400.25;5047531;28;20080;-60
2023/05/12 05:34:42;;;;;;;16.02;9.48;;;;;;;13.97;72.55;101399.44;5056106;28;20044;-58
2023/05/12 05:37:10;;;;;;;13.05;8.43;;;;;;;13.98;72.80;101403.78;5055904;28;20613;-59
2023/05/12 05:39:38;;;;;;;14.43;9.35;;;;;;;13.97;72.88;101396.72;5057202;28;20053;-60
2023/05/12 05:42:07;;;;;;;16.02;9.85;;;;;;;13.99;72.45;101405.44;5058449;28;20049;-61
2023/05/12 05:44:35;;;;;;;14.63;9.77;;;;;;;13.98;72.63;101418.13;5057586;28;20534;-62
2023/05/12 05:47:03;;;;;;;16.23;10.48;;;;;;;13.99;72.37;101414.34;5053230;28;20120;-61
2023/05/12 05:49:31;;;;;;;19.98;11.00;;;;;;;14.00;73.02;101413.31;4713682;28;9999827;-60
2023/05/12 05:51:59;;;;;;;13.88;9.75;;;;;;;14.01;72.81;101424.94;5049905;28;20113;-60
2023/05/12 05:54:26;;;;;;;16.08;11.20;;;;;;;14.00;73.00;101423.28;5041356;28;20053;-59
2023/05/12 05:56:54;;;;;;;15.98;10.82;;;;;;;14.00;72.93;101423.28;5049992;28;20048;-61
2023/05/12 05:59:24;;;;;;;17.98;11.82;;;;;;;14.00;72.90;101429.53;5055561;28;20053;-60
2023/05/12 06:01:52;;;;;;;20.48;12.15;;;;;;;14.00;73.36;101436.81;5049836;28;20131;-61
2023/05/12 06:04:20;;;;;;;15.98;11.88;;;;;;;14.00;73.04;101439.50;5053954;28;20216;-60
2023/05/12 06:06:48;;;;;;;22.88;12.48;;;;;;;13.99;73.33;101441.38;5054096;28;20244;-62
2023/05/12 06:09:16;;;;;;;19.33;13.93;;;;;;;13.99;73.59;101437.84;5051241;28;20064;-58
2023/05/12 06:11:43;;;;;;;16.38;11.80;;;;;;;13.99;73.19;101444.09;5052672;28;20059;-62
2023/05/12 06:14:11;;;;;;;33.05;13.38;;;;;;;14.01;73.56;101446.56;5047138;28;20060;-58
2023/05/12 06:16:40;;;;;;;19.73;14.07;;;;;;;13.97;73.76;101448.06;5046562;28;20068;-56
2023/05/12 06:19:09;;;;;;;21.88;13.20;;;;;;;13.98;73.66;101455.13;5050435;28;20099;-55
2023/05/12 06:21:37;;;;;;;17.75;13.43;;;;;;;13.99;73.39;101464.88;5049445;28;20040;-59
2023/05/12 06:24:05;;;;;;;19.08;13.55;;;;;;;13.99;73.96;101460.31;5057831;28;20045;-58
2023/05/12 06:26:33;;;;;;;20.85;13.63;;;;;;;13.99;73.69;101468.41;5044410;28;20107;-59
2023/05/12 06:29:01;;;;;;;17.05;12.85;;;;;;;14.00;73.98;101474.66;5046843;28;20045;-57
2023/05/12 06:31:29;;;;;;;14.88;11.52;;;;;;;14.01;73.75;101471.72;5038637;28;20303;-60
2023/05/12 06:33:58;;;;;;;18.58;13.75;;;;;;;13.95;73.55;101458.28;5050250;28;20135;-57
2023/05/12 06:36:27;;;;;;;16.42;12.80;;;;;;;14.03;73.85;101476.88;5047423;28;20133;-60
2023/05/12 06:38:55;;;;;;;18.17;11.30;;;;;;;14.03;73.85;101485.00;5051766;28;20053;-57
2023/05/12 06:41:24;;;;;;;17.90;13.15;;;;;;;14.04;73.87;101473.13;5051467;28;20089;-59
2023/05/12 06:43:52;;;;;;;17.23;12.02;;;;;;;13.95;73.82;101469.91;5048262;28;20087;-59
2023/05/12 06:46:20;;;;;;;17.20;12.98;;;;;;;14.04;74.18;101475.00;5045278;28;20144;-55
2023/05/12 06:48:47;;;;;;;25.13;13.02;;;;;;;14.04;74.13;101485.81;5049699;28;20048;-61
2023/05/12 06:51:17;;;;;;;17.40;13.02;;;;;;;14.04;74.45;101489.34;5049573;28;20046;-58
2023/05/12 06:53:45;;;;;;;18.25;13.38;;;;;;;14.06;74.30;101491.81;5041033;28;20120;-57
2023/05/12 06:56:15;;;;;;;17.88;14.02;;;;;;;14.06;74.69;101484.53;5052194;28;20048;-58
2023/05/12 06:58:43;;;;;;;13.73;11.77;;;;;;;14.07;74.12;101494.28;5055787;28;20053;-58
2023/05/12 07:01:11;;;;;;;18.00;13.95;;;;;;;14.06;73.92;101508.88;5052011;28;20063;-58
2023/05/12 07:03:39;;;;;;;17.95;13.15;;;;;;;14.08;74.40;101497.81;5045432;28;20052;-57
2023/05/12 07:06:07;;;;;;;15.13;11.32;;;;;;;14.08;74.14;101500.53;5048046;28;20049;-57
2023/05/12 07:08:36;;;;;;;15.45;12.45;;;;;;;14.07;74.16;101499.69;5056545;28;20045;-62
2023/05/12 07:11:04;;;;;;;14.68;11.43;;;;;;;14.09;74.24;101511.09;5057989;28;20052;-58
2023/05/12 07:13:32;;;;;;;16.45;10.77;;;;;;;14.10;74.39;101511.94;5061112;28;20112;-58
2023/05/12 07:16:00;;;;;;;12.98;10.57;;;;;;;14.10;74.25;101514.63;5058356;28;20049;-61
2023/05/12 07:18:28;;;;;;;17.42;11.73;;;;;;;14.10;74.40;101510.06;5056325;28;20253;-59
2023/05/12 07:20:56;;;;;;;16.00;10.70;;;;;;;14.11;74.14;101511.72;5056951;28;20084;-58
2023/05/12 07:23:24;;;;;;;15.38;9.98;;;;;;;14.12;74.07;101513.34;5057023;28;20041;-60
2023/05/12 07:25:53;;;;;;;14.57;9.85;;;;;;;14.13;74.47;101516.88;5053252;28;20128;-58
2023/05/12 07:28:21;;;;;;;12.88;10.20;;;;;;;14.14;73.84;101524.75;5056105;28;20060;-59
2023/05/12 07:30:48;;;;;;;12.13;8.48;;;;;;;14.15;73.94;101526.41;5052623;28;20048;-59
2023/05/12 07:33:16;;;;;;;12.63;9.20;;;;;;;14.16;73.30;101525.34;5058241;28;20073;-59
2023/05/12 07:35:45;;;;;;;9.85;8.10;;;;;;;14.18;73.49;101525.13;5058754;28;20049;-58
2023/05/12 07:38:14;;;;;;;11.07;7.90;;;;;;;14.18;72.89;101527.84;5059110;28;20041;-60
2023/05/12 07:40:42;;;;;;;8.48;7.07;;;;;;;14.19;72.98;101522.19;5059083;28;20390;-59
2023/05/12 07:43:11;;;;;;;9.43;7.45;;;;;;;14.19;73.51;101527.59;5054559;28;20052;-59
2023/05/12 07:45:39;;;;;;;11.20;6.85;;;;;;;14.19;73.13;101526.78;5057895;28;20495;-59
2023/05/12 07:48:06;;;;;;;8.70;6.05;;;;;;;14.20;73.17;101529.25;5059041;28;20148;-59
2023/05/12 07:50:34;;;;;;;8.07;6.22;;;;;;;14.21;73.10;101530.09;5045079;28;20052;-60
2023/05/12 07:53:03;;;;;;;7.07;5.85;;;;;;;14.23;73.15;101533.38;5049027;28;20088;-58
2023/05/12 07:55:32;;;;;;;7.25;5.53;;;;;;;14.25;73.39;101536.69;5059631;28;20064;-58
2023/05/12 07:58:00;;;;;;;6.93;5.25;;;;;;;14.26;73.33;101538.31;5058011;28;20079;-60
2023/05/12 08:00:29;;;;;;;5.55;4.88;;;;;;;14.27;73.02;101530.00;5058311;28;20084;-56
2023/05/12 08:02:57;;;;;;;6.13;4.90;;;;;;;14.28;73.30;101533.50;5045306;28;20085;-59
2023/05/12 08:05:25;;;;;;;7.20;4.97;;;;;;;14.29;73.10;101538.69;5057004;28;20053;-55
2023/05/12 08:07:53;;;;;;;6.88;3.95;;;;;;;14.29;73.22;101543.28;5050668;28;20084;-59
2023/05/12 08:10:25;;;;;;;6.25;4.22;;;;;;;14.30;73.09;101542.22;5040437;28;20080;-59
2023/05/12 08:12:53;;;;;;;4.88;3.50;;;;;;;14.31;73.25;101544.69;5048698;28;20133;-59
2023/05/12 08:15:21;;;;;;;4.15;3.53;;;;;;;14.33;72.67;101550.69;5052603;28;20056;-60
2023/05/12 08:17:50;;;;;;;6.75;3.92;;;;;;;14.33;72.71;101547.19;5039667;28;20567;-59
2023/05/12 08:20:19;;;;;;;6.93;4.00;;;;;;;14.33;72.84;101550.69;5048371;28;20173;-62
2023/05/12 08:22:47;;;;;;;4.03;3.17;;;;;;;14.34;72.90;101549.66;5053957;28;20116;-62
2023/05/12 08:25:15;;;;;;;5.25;3.70;;;;;;;14.35;72.86;101555.88;5047958;28;20072;-61
2023/05/12 08:27:42;;;;;;;5.63;3.60;;;;;;;14.40;72.57;101556.00;5048842;28;20099;-60
2023/05/12 08:30:11;;;;;;;3.63;3.05;;;;;;;14.40;72.66;101560.59;5050034;28;20112;-61
2023/05/12 08:32:39;;;;;;;6.57;3.30;;;;;;;14.34;72.66;101552.34;5061755;28;20099;-57
2023/05/12 08:35:08;;;;;;;4.88;2.95;;;;;;;14.36;72.81;101549.41;5060516;28;20107;-61
2023/05/12 08:37:36;;;;;;;7.93;2.85;;;;;;;14.41;72.74;101564.97;5057995;28;20048;-59
2023/05/12 08:40:13;;;;;;;4.57;3.15;;;;;;;14.40;72.64;101561.44;5046705;28;20041;-60
2023/05/12 08:42:43;;;;;;;3.33;2.78;;;;;;;14.41;72.91;101554.97;5050444;28;20132;-60
2023/05/12 08:45:11;;;;;;;5.45;3.00;;;;;;;14.43;72.56;101566.41;5061132;28;20513;-61
2023/05/12 08:47:41;;;;;;;4.85;2.70;;;;;;;14.50;72.50;101566.31;5058414;28;20057;-61
2023/05/12 08:50:14;;;;;;;3.83;2.80;;;;;;;14.49;72.67;101575.47;5056016;28;20057;-60
2023/05/12 08:52:41;;;;;;;4.13;3.05;;;;;;;14.49;72.76;101578.19;5057242;28;20068;-62
2023/05/12 08:55:10;;;;;;;3.72;2.33;;;;;;;14.48;72.74;101574.66;5062101;28;20049;-60
2023/05/12 08:57:38;;;;;;;4.50;2.78;;;;;;;14.53;72.60;101571.25;5056378;28;20060;-61
2023/05/12 09:00:08;;;;;;;4.45;2.70;;;;;;;14.53;72.59;101576.66;5049748;28;20104;-61
2023/05/12 09:02:39;;;;;;;2.85;2.17;;;;;;;14.55;72.34;101585.38;5060569;28;20449;-61
2023/05/12 09:05:22;;;;;;;4.45;2.80;;;;;;;14.64;71.94;101581.28;5062243;28;20041;-60
2023/05/12 09:07:53;;;;;;;3.40;2.53;;;;;;;14.59;72.17;101584.69;5057306;28;20075;-62
2023/05/12 09:10:22;;;;;;;3.25;2.30;;;;;;;14.63;72.10;101585.06;5049616;28;20053;-59
2023/05/12 09:13:04;;;;;;;6.00;2.38;;;;;;;14.62;72.04;101589.66;5050480;28;20102;-60
2023/05/12 09:15:36;;;;;;;3.13;2.53;;;;;;;14.62;72.07;101586.13;5054816;28;20076;-60
2023/05/12 09:18:05;;;;;;;3.33;2.17;;;;;;;14.61;72.25;101588.00;5048061;28;20045;-61
2023/05/12 09:20:34;;;;;;;5.00;2.55;;;;;;;14.65;71.84;101586.47;5053281;28;20041;-60
2023/05/12 09:23:13;;;;;;;3.67;2.20;;;;;;;14.67;71.74;101594.38;5052895;28;20118;-60
2023/05/12 09:25:41;;;;;;;3.50;2.33;;;;;;;14.66;71.65;101592.72;5052182;28;20045;-61
2023/05/12 09:28:11;;;;;;;2.88;2.20;;;;;;;14.65;71.52;101596.47;5046632;28;20085;-61
2023/05/12 09:30:41;;;;;;;3.08;2.10;;;;;;;14.68;71.57;101590.59;5045437;28;20045;-60
2023/05/12 09:33:10;;;;;;;3.53;2.28;;;;;;;14.67;71.55;101594.38;5054211;28;20049;-60
2023/05/12 09:35:44;;;;;;;3.53;2.20;;;;;;;14.68;71.54;101600.59;5047084;28;20037;-61
2023/05/12 09:38:13;;;;;;;3.35;2.40;;;;;;;14.71;71.52;101600.97;5050707;28;20364;-61
2023/05/12 09:40:42;;;;;;;2.65;2.17;;;;;;;14.77;70.79;101599.22;5052696;28;20115;-61
2023/05/12 09:43:11;;;;;;;2.50;2.13;;;;;;;14.75;70.90;101604.03;4702350;28;9999998;-60
2023/05/12 09:45:42;;;;;;;5.68;2.53;;;;;;;14.75;71.11;101602.16;5052738;28;20123;-62
2023/05/12 09:48:12;;;;;;;2.88;2.10;;;;;;;14.76;71.02;101597.56;5051771;28;20048;-61
2023/05/12 09:50:47;;;;;;;3.08;2.08;;;;;;;14.75;70.59;101606.75;5044104;28;20053;-61
2023/05/12 09:53:17;;;;;;;4.78;2.13;;;;;;;14.75;70.99;101609.44;5049812;28;20059;-62
2023/05/12 09:55:47;;;;;;;2.97;2.20;;;;;;;14.79;70.62;101605.22;5054282;28;20045;-60
2023/05/12 09:58:16;;;;;;;2.90;2.08;;;;;;;14.80;70.97;101605.00;5051328;28;20168;-62
2023/05/12 10:00:45;;;;;;;3.13;2.15;;;;;;;14.83;70.94;101603.69;5048151;28;20152;-60
2023/05/12 10:03:20;;;;;;;2.35;1.83;;;;;;;14.84;70.83;101608.06;5050073;28;20049;-60
2023/05/12 10:05:54;;;;;;;3.80;1.90;;;;;;;14.85;70.84;101607.81;5053766;28;20075;-62
2023/05/12 10:08:27;;;;;;;3.13;2.00;;;;;;;14.87;71.00;101607.59;5056367;28;20053;-60
2023/05/12 10:10:56;;;;;;;2.50;2.15;;;;;;;14.86;70.81;101609.47;5057646;28;20088;-61
2023/05/12 10:13:25;;;;;;;2.88;2.00;;;;;;;14.87;70.97;101605.72;5056506;28;20091;-61
2023/05/12 10:15:56;;;;;;;6.40;1.90;;;;;;;14.88;70.90;101614.66;5055561;28;20120;-57
2023/05/12 10:18:24;;;;;;;2.58;2.00;;;;;;;14.91;70.67;101609.59;5056646;28;20045;-62
2023/05/12 10:20:53;;;;;;;4.30;1.88;;;;;;;14.97;70.97;101605.16;5051925;28;20052;-63
2023/05/12 10:23:23;;;;;;;4.43;2.05;;;;;;;14.90;70.76;101601.72;5049644;28;20048;-62
2023/05/12 10:25:53;;;;;;;6.38;1.95;;;;;;;14.97;70.60;101618.69;5045274;28;20089;-58
2023/05/12 10:28:21;;;;;;;3.22;2.25;;;;;;;14.97;70.49;101611.38;5050309;28;20136;-61
2023/05/12 10:30:50;;;;;;;4.03;2.30;;;;;;;14.97;70.23;101611.38;5053628;28;20045;-61
2023/05/12 10:33:18;;;;;;;2.97;2.10;;;;;;;14.99;70.15;101608.44;5045824;28;20613;-62
2023/05/12 10:35:46;;;;;;;3.25;1.83;;;;;;;15.00;70.13;101618.22;5048639;28;20708;-61
2023/05/12 10:38:18;;;;;;;2.22;1.85;;;;;;;14.96;70.20;101604.31;5056331;28;20453;-62
2023/05/12 10:40:54;;;;;;;2.55;1.83;;;;;;;15.03;69.95;101608.81;5048963;28;20100;-64
2023/05/12 10:43:23;;;;;;;4.45;2.08;;;;;;;14.96;70.21;101589.97;5055283;28;20045;-61
2023/05/12 10:46:10;;;;;;;3.03;1.80;;;;;;;15.08;70.46;101608.94;5055666;28;20407;-60
2023/05/12 10:48:49;;;;;;;;;;;;;;;15.11;70.76;101614.72;5055985;28;20044;-60
2023/05/12 10:51:20;;;;;;;2.50;1.92;;;;;;;15.14;70.89;101619.66;5054641;28;19921;-52
2023/05/12 10:53:53;;;;;;;3.35;2.20;;;;;;;15.17;70.84;101611.06;5048608;28;20072;-60
2023/05/12 10:56:23;;;;;;;5.22;2.35;;;;;;;15.21;71.35;101603.31;5050611;28;20117;-61
2023/05/12 10:59:15;;;;;;;3.30;2.00;;;;;;;15.22;70.77;101611.19;5041377;28;20361;-61
2023/05/12 11:02:01;;;;;;;3.38;2.28;;;;;;;15.32;71.19;101621.44;5046915;28;20307;-58
2023/05/12 11:04:41;;;;;;;2.60;1.70;;;;;;;15.31;70.81;101611.66;5046886;28;20286;-56
2023/05/12 11:07:11;;;;;;;7.90;2.05;;;;;;;15.34;71.03;101619.31;5050712;28;20143;-59
2023/05/12 11:09:44;;;;;;;3.97;2.38;;;;;;;15.40;71.38;101617.56;5053425;28;20079;-58
2023/05/12 11:12:26;;;;;;;3.88;2.17;;;;;;;15.43;70.97;101625.22;5044236;28;20443;-57
2023/05/12 11:14:54;;;;;;;2.47;1.80;;;;;;;15.40;70.44;101631.94;5054237;28;20084;-53
2023/05/12 11:17:22;;;;;;;2.35;1.95;;;;;;;15.44;70.72;101630.41;5046657;28;20130;-59
2023/05/12 11:19:51;;;;;;;3.58;2.33;;;;;;;15.47;70.77;101635.34;5046339;28;20293;-58
2023/05/12 11:22:20;;;;;;;5.97;2.00;;;;;;;15.46;70.75;101641.84;5050680;28;20131;-57
2023/05/12 11:24:51;;;;;;;2.90;1.98;;;;;;;15.49;70.23;101643.25;5049620;28;20198;-59
2023/05/12 11:27:21;;;;;;;3.08;1.90;;;;;;;15.45;70.72;101623.09;5048139;28;20045;-50
2023/05/12 11:29:57;;;;;;;2.28;1.70;;;;;;;15.51;70.33;101638.41;5052611;28;20047;-58
2023/05/12 11:32:25;;;;;;;2.65;2.00;;;;;;;15.56;70.73;101649.38;5045091;28;20045;-54